Time;durP1;ratioP1;P1;durP2;ratioP2;P2;SDS_P1;SDS_P2;PMS_P1;PMS_P2;Temp;Humidity;BMP_temperature;BMP_pressure;BME280_temperature;BME280_humidity;BME280_pressure;Samples;Min_cycle;Max_cycle;Signal;HPM_P1;HPM_P2
2022/08/30 00:01:01;;;;;;;;;;;29.00;54.70;;;;;;869736;22;602;-78
2022/08/30 00:01:25;;;;;;;;;;;29.00;54.60;;;;;;869954;22;877;-77
2022/08/30 00:01:46;;;;;;;;;;;29.00;53.80;;;;;;864032;22;1098;-79
2022/08/30 00:02:06;;;;;;;;;;;28.90;53.70;;;;;;865345;22;765;-79
2022/08/30 00:02:27;;;;;;;;;;;29.00;53.80;;;;;;865372;22;837;-79
2022/08/30 00:02:48;;;;;;;;;;;29.00;54.70;;;;;;865073;22;888;-79
2022/08/30 00:03:10;;;;;;;;;;;29.00;54.70;;;;;;865286;22;789;-80
2022/08/30 00:03:33;;;;;;;;;;;28.90;53.70;;;;;;866135;22;854;-78
2022/08/30 00:03:53;;;;;;;;;;;29.00;53.70;;;;;;869747;22;941;-78
2022/08/30 00:04:14;;;;;;;;;;;29.00;53.80;;;;;;869855;22;813;-78
2022/08/30 00:04:34;;;;;;;;;;;29.00;54.80;;;;;;869713;22;872;-79
2022/08/30 00:04:56;;;;;;;;;;;28.90;53.90;;;;;;869829;22;850;-77
2022/08/30 00:05:16;;;;;;;;;;;29.00;54.80;;;;;;864544;22;1350;-76
2022/08/30 00:05:38;;;;;;;;;;;29.00;54.80;;;;;;865383;22;781;-79
2022/08/30 00:05:59;;;;;;;;;;;29.00;55.00;;;;;;865334;22;785;-78
2022/08/30 00:06:21;;;;;;;;;;;29.00;54.30;;;;;;865349;22;864;-78
2022/08/30 00:06:41;;;;;;;;;;;29.00;55.00;;;;;;865207;22;896;-79
2022/08/30 00:07:02;;;;;;;;;;;29.00;54.00;;;;;;866202;22;805;-79
2022/08/30 00:07:24;;;;;;;;;;;28.90;53.90;;;;;;869897;22;908;-79
2022/08/30 00:07:44;;;;;;;;;;;29.00;55.20;;;;;;869795;22;801;-79
2022/08/30 00:08:05;;;;;;;;;;;29.00;55.10;;;;;;869618;22;821;-79
2022/08/30 00:08:25;;;;;;;;;;;29.00;54.40;;;;;;869858;22;793;-78
2022/08/30 00:08:47;;;;;;;;;;;29.00;54.10;;;;;;869627;22;1059;-80
2022/08/30 00:09:08;;;;;;;;;;;29.00;55.10;;;;;;869609;22;955;-79
2022/08/30 00:09:30;;;;;;;;;;;29.00;53.90;;;;;;869832;22;841;-79
2022/08/30 00:09:50;;;;;;;;;;;29.00;54.10;;;;;;869742;22;912;-79
2022/08/30 00:10:11;;;;;;;;;;;29.00;54.00;;;;;;869731;22;872;-79
2022/08/30 00:10:33;;;;;;;;;;;29.00;53.90;;;;;;869964;22;793;-80
2022/08/30 00:10:54;;;;;;;;;;;29.00;54.00;;;;;;869803;22;860;-79
2022/08/30 00:11:16;;;;;;;;;;;29.00;55.00;;;;;;869546;22;825;-80
2022/08/30 00:11:36;;;;;;;;;;;29.00;54.00;;;;;;869762;22;884;-82
2022/08/30 00:11:57;;;;;;;;;;;29.00;54.00;;;;;;870001;22;793;-78
2022/08/30 00:12:19;;;;;;;;;;;29.00;54.90;;;;;;869700;22;884;-79
2022/08/30 00:12:42;;;;;;;;;;;29.00;53.90;;;;;;869768;22;848;-80
2022/08/30 00:13:03;;;;;;;;;;;29.00;53.90;;;;;;869722;22;868;-80
2022/08/30 00:13:23;;;;;;;;;;;29.10;55.00;;;;;;869771;22;1888;-80
2022/08/30 00:13:45;;;;;;;;;;;29.10;54.90;;;;;;869807;22;829;-78
2022/08/30 00:14:05;;;;;;;;;;;29.10;54.90;;;;;;869715;22;796;-79
2022/08/30 00:14:26;;;;;;;;;;;29.00;53.90;;;;;;869735;22;960;-80
2022/08/30 00:14:46;;;;;;;;;;;29.00;53.90;;;;;;869768;22;884;-80
2022/08/30 00:15:08;;;;;;;;;;;29.00;53.70;;;;;;869770;22;923;-79
2022/08/30 00:15:28;;;;;;;;;;;29.10;54.80;;;;;;869983;22;816;-81
2022/08/30 00:15:49;;;;;;;;;;;29.10;54.80;;;;;;865242;22;820;-80
2022/08/30 00:16:11;;;;;;;;;;;29.00;53.80;;;;;;865212;22;916;-79
2022/08/30 00:16:32;;;;;;;;;;;29.10;54.80;;;;;;865178;22;845;-80
2022/08/30 00:16:52;;;;;;;;;;;29.10;53.60;;;;;;861068;23;876;-80
2022/08/30 00:17:13;;;;;;;;;;;29.10;53.60;;;;;;860946;23;885;-80
2022/08/30 00:17:33;;;;;;;;;;;29.10;54.80;;;;;;861430;22;917;-80
2022/08/30 00:17:54;;;;;;;;;;;29.10;53.70;;;;;;865241;22;1094;-80
2022/08/30 00:18:17;;;;;;;;;;;29.10;53.80;;;;;;865384;22;845;-81
2022/08/30 00:18:38;;;;;;;;;;;29.10;53.80;;;;;;866179;22;932;-79
2022/08/30 00:19:00;;;;;;;;;;;29.10;53.80;;;;;;869814;22;868;-79
2022/08/30 00:19:20;;;;;;;;;;;29.10;53.60;;;;;;869741;22;841;-76
2022/08/30 00:19:41;;;;;;;;;;;29.10;53.60;;;;;;869713;22;877;-79
2022/08/30 00:20:03;;;;;;;;;;;29.00;53.60;;;;;;869774;22;781;-77
2022/08/30 00:20:25;;;;;;;;;;;29.10;54.60;;;;;;869913;22;824;-80
2022/08/30 00:20:46;;;;;;;;;;;29.10;54.50;;;;;;869917;22;777;-80
2022/08/30 00:21:08;;;;;;;;;;;29.00;53.60;;;;;;869680;22;844;-81
2022/08/30 00:21:29;;;;;;;;;;;29.10;53.60;;;;;;869790;22;773;-79
2022/08/30 00:21:49;;;;;;;;;;;29.10;55.80;;;;;;869722;22;912;-81
2022/08/30 00:22:10;;;;;;;;;;;29.10;53.70;;;;;;869862;22;812;-79
2022/08/30 00:22:31;;;;;;;;;;;29.10;53.50;;;;;;869645;22;789;-79
2022/08/30 00:22:52;;;;;;;;;;;29.10;53.60;;;;;;869755;22;845;-78
2022/08/30 00:23:13;;;;;;;;;;;29.10;53.60;;;;;;865210;22;761;-79
2022/08/30 00:23:33;;;;;;;;;;;29.10;53.60;;;;;;865269;22;816;-81
2022/08/30 00:23:54;;;;;;;;;;;29.10;53.60;;;;;;865299;22;924;-80
2022/08/30 00:24:15;;;;;;;;;;;29.10;54.60;;;;;;865258;22;909;-77
2022/08/30 00:24:35;;;;;;;;;;;29.10;54.50;;;;;;864943;22;966;-79
2022/08/30 00:24:56;;;;;;;;;;;29.10;54.70;;;;;;866117;22;817;-79
2022/08/30 00:25:17;;;;;;;;;;;29.10;53.60;;;;;;869711;22;836;-79
2022/08/30 00:25:38;;;;;;;;;;;29.10;54.50;;;;;;869686;22;829;-79
2022/08/30 00:26:00;;;;;;;;;;;;;;;;;;869842;22;845;-77
2022/08/30 00:26:21;;;;;;;;;;;29.20;53.60;;;;;;869834;22;769;-80
2022/08/30 00:26:41;;;;;;;;;;;29.10;53.60;;;;;;869679;22;900;-79
2022/08/30 00:27:02;;;;;;;;;;;29.10;53.50;;;;;;865150;22;1265;-80
2022/08/30 00:27:22;;;;;;;;;;;29.10;53.70;;;;;;865386;22;915;-80
2022/08/30 00:27:44;;;;;;;;;;;29.10;53.40;;;;;;865289;22;801;-77
2022/08/30 00:28:04;;;;;;;;;;;29.10;53.50;;;;;;865272;22;777;-79
2022/08/30 00:28:25;;;;;;;;;;;29.10;53.50;;;;;;865383;22;765;-80
2022/08/30 00:28:45;;;;;;;;;;;29.10;53.60;;;;;;865943;22;817;-80
2022/08/30 00:29:06;;;;;;;;;;;29.10;53.50;;;;;;864578;22;1151;-79
2022/08/30 00:29:26;;;;;;;;;;;29.10;53.50;;;;;;865323;22;845;-79
2022/08/30 00:29:47;;;;;;;;;;;29.10;53.50;;;;;;860266;23;1544;-78
2022/08/30 00:30:08;;;;;;;;;;;29.10;53.40;;;;;;861085;23;854;-78
2022/08/30 00:30:29;;;;;;;;;;;29.10;53.40;;;;;;861061;23;1339;-78
2022/08/30 00:30:50;;;;;;;;;;;29.10;53.50;;;;;;857329;23;1102;-78
2022/08/30 00:31:11;;;;;;;;;;;29.10;53.50;;;;;;861056;23;872;-80
2022/08/30 00:31:31;;;;;;;;;;;29.10;53.30;;;;;;861737;22;836;-78
2022/08/30 00:31:52;;;;;;;;;;;29.10;53.30;;;;;;865349;22;786;-80
2022/08/30 00:32:12;;;;;;;;;;;29.10;53.40;;;;;;865047;22;861;-79
2022/08/30 00:32:33;;;;;;;;;;;29.10;53.40;;;;;;865743;22;758;-82
2022/08/30 00:32:54;;;;;;;;;;;29.20;54.50;;;;;;869877;22;916;-79
2022/08/30 00:33:15;;;;;;;;;;;29.10;54.40;;;;;;869687;22;1865;-80
2022/08/30 00:33:35;;;;;;;;;;;29.10;53.50;;;;;;869574;22;915;-79
2022/08/30 00:33:56;;;;;;;;;;;29.10;54.50;;;;;;869621;22;1346;-80
2022/08/30 00:34:17;;;;;;;;;;;29.10;53.40;;;;;;869633;22;888;-80
2022/08/30 00:34:37;;;;;;;;;;;29.10;54.40;;;;;;869677;22;778;-79
2022/08/30 00:34:58;;;;;;;;;;;29.20;54.40;;;;;;869841;22;769;-77
2022/08/30 00:35:19;;;;;;;;;;;29.20;54.50;;;;;;869675;22;888;-80
2022/08/30 00:35:40;;;;;;;;;;;29.10;53.40;;;;;;869568;22;962;-80
2022/08/30 00:36:00;;;;;;;;;;;29.10;53.40;;;;;;869723;22;761;-80
2022/08/30 00:36:21;;;;;;;;;;;29.20;54.40;;;;;;869567;22;940;-78
2022/08/30 00:36:44;;;;;;;;;;;29.20;54.50;;;;;;869631;22;860;-80
2022/08/30 00:37:05;;;;;;;;;;;29.20;54.40;;;;;;869742;22;782;-79
2022/08/30 00:37:26;;;;;;;;;;;29.10;54.30;;;;;;869745;22;857;-80
2022/08/30 00:37:47;;;;;;;;;;;29.20;54.40;;;;;;869620;22;872;-80
2022/08/30 00:38:08;;;;;;;;;;;29.20;54.50;;;;;;869697;22;1051;-80
2022/08/30 00:38:29;;;;;;;;;;;29.10;54.50;;;;;;869778;22;868;-80
2022/08/30 00:38:49;;;;;;;;;;;29.20;54.60;;;;;;869539;22;933;-79
2022/08/30 00:39:10;;;;;;;;;;;29.10;54.40;;;;;;869773;22;821;-81
2022/08/30 00:39:30;;;;;;;;;;;29.10;53.50;;;;;;869599;22;857;-81
2022/08/30 00:39:51;;;;;;;;;;;29.20;53.50;;;;;;869867;22;828;-80
2022/08/30 00:40:14;;;;;;;;;;;29.20;54.50;;;;;;869686;22;797;-81
2022/08/30 00:40:36;;;;;;;;;;;29.20;53.60;;;;;;869486;22;856;-78
2022/08/30 00:40:58;;;;;;;;;;;29.20;53.50;;;;;;869691;22;769;-80
2022/08/30 00:41:19;;;;;;;;;;;29.20;53.50;;;;;;869390;22;1476;-79
2022/08/30 00:41:39;;;;;;;;;;;29.10;53.50;;;;;;869693;22;804;-79
2022/08/30 00:42:00;;;;;;;;;;;29.10;53.40;;;;;;869842;22;820;-80
2022/08/30 00:42:20;;;;;;;;;;;29.10;54.40;;;;;;869880;22;745;-78
2022/08/30 00:42:42;;;;;;;;;;;29.10;53.40;;;;;;869669;22;845;-80
2022/08/30 00:43:05;;;;;;;;;;;29.20;54.50;;;;;;869660;22;840;-80
2022/08/30 00:43:27;;;;;;;;;;;29.20;54.40;;;;;;869827;22;881;-80
2022/08/30 00:43:48;;;;;;;;;;;29.20;53.50;;;;;;864609;22;990;-82
2022/08/30 00:44:08;;;;;;;;;;;29.20;54.40;;;;;;865197;22;821;-81
2022/08/30 00:44:29;;;;;;;;;;;29.20;54.40;;;;;;865255;22;809;-81
2022/08/30 00:44:50;;;;;;;;;;;29.10;53.50;;;;;;865136;22;893;-79
2022/08/30 00:45:19;;;;;;;;;;;29.20;53.50;;;;;;865370;22;805;-78
2022/08/30 00:45:40;;;;;;;;;;;29.20;54.50;;;;;;867724;22;828;-78
2022/08/30 00:46:03;;;;;;;;;;;29.20;54.50;;;;;;869754;22;816;-79
2022/08/30 00:46:23;;;;;;;;;;;29.20;54.50;;;;;;869948;22;769;-79
2022/08/30 00:46:44;;;;;;;;;;;29.20;54.50;;;;;;869560;22;886;-79
2022/08/30 00:47:05;;;;;;;;;;;29.20;53.60;;;;;;869692;22;765;-81
2022/08/30 00:47:25;;;;;;;;;;;29.20;54.50;;;;;;869857;22;934;-80
2022/08/30 00:47:46;;;;;;;;;;;29.10;53.40;;;;;;869686;22;798;-80
2022/08/30 00:48:07;;;;;;;;;;;29.20;54.60;;;;;;869713;22;789;-80
2022/08/30 00:48:29;;;;;;;;;;;29.10;53.50;;;;;;869666;22;891;-82
2022/08/30 00:48:51;;;;;;;;;;;29.20;54.60;;;;;;869033;22;1048;-80
2022/08/30 00:49:12;;;;;;;;;;;29.20;54.50;;;;;;869710;22;785;-79
2022/08/30 00:49:33;;;;;;;;;;;29.20;54.60;;;;;;869501;22;1005;-80
2022/08/30 00:49:55;;;;;;;;;;;29.20;54.60;;;;;;869826;22;848;-80
2022/08/30 00:50:17;;;;;;;;;;;29.20;53.80;;;;;;869754;22;820;-80
2022/08/30 00:50:40;;;;;;;;;;;29.20;54.70;;;;;;865042;22;1178;-79
2022/08/30 00:51:03;;;;;;;;;;;29.20;53.60;;;;;;865124;22;826;-80
2022/08/30 00:51:25;;;;;;;;;;;29.20;55.70;;;;;;865345;22;859;-82
2022/08/30 00:51:45;;;;;;;;;;;29.20;54.60;;;;;;864371;22;1669;-80
2022/08/30 00:52:07;;;;;;;;;;;29.20;53.70;;;;;;865289;22;860;-80
2022/08/30 00:52:27;;;;;;;;;;;29.20;53.70;;;;;;865269;22;857;-79
2022/08/30 00:52:49;;;;;;;;;;;29.20;53.70;;;;;;865247;22;885;-79
2022/08/30 00:53:12;;;;;;;;;;;29.20;53.70;;;;;;864999;22;1904;-79
2022/08/30 00:53:35;;;;;;;;;;;29.20;54.60;;;;;;866587;22;804;-80
2022/08/30 00:53:56;;;;;;;;;;;29.20;54.70;;;;;;869763;22;821;-79
2022/08/30 00:54:17;;;;;;;;;;;29.20;54.70;;;;;;869765;22;778;-82
2022/08/30 00:54:40;;;;;;;;;;;29.20;54.70;;;;;;869488;22;896;-79
2022/08/30 00:55:02;;;;;;;;;;;29.20;54.80;;;;;;869690;22;817;-81
2022/08/30 00:55:23;;;;;;;;;;;29.20;53.80;;;;;;869843;22;797;-80
2022/08/30 00:55:44;;;;;;;;;;;29.20;53.80;;;;;;869594;22;931;-81
2022/08/30 00:56:05;;;;;;;;;;;29.20;53.80;;;;;;869659;22;516;-79
2022/08/30 00:56:26;;;;;;;;;;;29.20;54.80;;;;;;869713;22;850;-79
2022/08/30 00:56:47;;;;;;;;;;;29.20;54.90;;;;;;869753;22;821;-80
2022/08/30 00:57:08;;;;;;;;;;;29.20;54.70;;;;;;869578;22;946;-80
2022/08/30 00:57:29;;;;;;;;;;;29.20;54.80;;;;;;869776;22;789;-82
2022/08/30 00:57:52;;;;;;;;;;;29.20;53.90;;;;;;869692;22;880;-78
2022/08/30 00:58:15;;;;;;;;;;;29.20;53.80;;;;;;869811;22;855;-80
2022/08/30 00:58:38;;;;;;;;;;;29.20;54.80;;;;;;865017;22;1431;-79
2022/08/30 00:59:00;;;;;;;;;;;29.20;53.80;;;;;;865183;22;887;-82
2022/08/30 00:59:23;;;;;;;;;;;29.20;53.80;;;;;;865302;22;765;-79
2022/08/30 00:59:45;;;;;;;;;;;29.20;53.80;;;;;;865264;22;841;-80
2022/08/30 01:00:07;;;;;;;;;;;33.10;56.70;;;;;;865133;22;829;-81
2022/08/30 01:00:27;;;;;;;;;;;29.20;53.80;;;;;;867597;22;789;-80
2022/08/30 01:00:49;;;;;;;;;;;29.10;53.70;;;;;;869713;22;777;-79
2022/08/30 01:01:09;;;;;;;;;;;29.10;53.70;;;;;;864552;22;1203;-78
2022/08/30 01:01:31;;;;;;;;;;;29.10;53.70;;;;;;865144;22;939;-79
2022/08/30 01:01:52;;;;;;;;;;;29.10;53.80;;;;;;865209;22;951;-79
2022/08/30 01:02:13;;;;;;;;;;;29.10;53.80;;;;;;865196;22;821;-79
2022/08/30 01:02:33;;;;;;;;;;;29.10;53.80;;;;;;864536;22;1292;-81
2022/08/30 01:02:54;;;;;;;;;;;29.20;54.80;;;;;;865172;22;907;-77
2022/08/30 01:03:16;;;;;;;;;;;29.10;54.60;;;;;;865180;22;836;-78
2022/08/30 01:03:37;;;;;;;;;;;29.10;54.80;;;;;;865220;22;782;-80
2022/08/30 01:03:59;;;;;;;;;;;29.10;54.80;;;;;;865259;22;789;-79
2022/08/30 01:04:22;;;;;;;;;;;29.10;54.80;;;;;;866227;22;924;-78
2022/08/30 01:04:43;;;;;;;;;;;29.10;53.90;;;;;;869516;22;868;-79
2022/08/30 01:05:07;;;;;;;;;;;29.10;54.90;;;;;;869729;22;825;-80
2022/08/30 01:05:28;;;;;;;;;;;29.10;53.90;;;;;;865318;22;797;-82
2022/08/30 01:05:50;;;;;;;;;;;29.10;53.90;;;;;;865062;22;889;-78
2022/08/30 01:06:14;;;;;;;;;;;29.10;55.00;;;;;;865219;22;761;-80
2022/08/30 01:06:35;;;;;;;;;;;29.10;54.00;;;;;;865172;22;801;-79
2022/08/30 01:06:56;;;;;;;;;;;29.10;55.00;;;;;;865317;22;809;-79
2022/08/30 01:07:17;;;;;;;;;;;29.10;55.10;;;;;;867083;22;931;-78
2022/08/30 01:07:38;;;;;;;;;;;29.00;54.00;;;;;;869726;22;813;-79
2022/08/30 01:07:59;;;;;;;;;;;29.10;55.00;;;;;;869797;22;824;-80
2022/08/30 01:08:21;;;;;;;;;;;29.10;54.10;;;;;;869617;22;820;-78
2022/08/30 01:08:42;;;;;;;;;;;29.10;55.00;;;;;;869562;22;948;-79
2022/08/30 01:09:03;;;;;;;;;;;29.10;55.00;;;;;;869479;22;872;-80
2022/08/30 01:09:24;;;;;;;;;;;29.10;55.00;;;;;;869815;22;861;-80
2022/08/30 01:09:44;;;;;;;;;;;29.10;55.10;;;;;;869525;22;828;-79
2022/08/30 01:10:06;;;;;;;;;;;29.10;55.10;;;;;;869566;22;905;-80
2022/08/30 01:10:26;;;;;;;;;;;29.00;54.10;;;;;;869785;22;1229;-81
2022/08/30 01:10:48;;;;;;;;;;;29.10;55.10;;;;;;869643;22;753;-81
2022/08/30 01:11:08;;;;;;;;;;;29.00;55.30;;;;;;869712;22;864;-79
2022/08/30 01:11:30;;;;;;;;;;;29.10;54.80;;;;;;865120;22;1390;-79
2022/08/30 01:11:51;;;;;;;;;;;29.00;54.50;;;;;;865130;22;933;-81
2022/08/30 01:12:12;;;;;;;;;;;29.00;54.40;;;;;;865088;22;907;-82
2022/08/30 01:12:32;;;;;;;;;;;29.00;54.40;;;;;;860276;23;908;-80
2022/08/30 01:12:53;;;;;;;;;;;29.00;55.30;;;;;;861034;23;928;-79
2022/08/30 01:13:14;;;;;;;;;;;29.00;54.40;;;;;;861688;22;1930;-80
2022/08/30 01:13:34;;;;;;;;;;;29.00;54.50;;;;;;860515;23;1112;-80
2022/08/30 01:13:56;;;;;;;;;;;29.00;55.50;;;;;;860930;23;880;-80
2022/08/30 01:14:20;;;;;;;;;;;29.00;54.40;;;;;;861884;22;767;-81
2022/08/30 01:14:41;;;;;;;;;;;29.10;55.50;;;;;;865139;22;848;-80
2022/08/30 01:15:02;;;;;;;;;;;29.00;54.50;;;;;;865081;22;801;-81
2022/08/30 01:15:23;;;;;;;;;;;29.00;55.50;;;;;;866724;22;875;-80
2022/08/30 01:15:44;;;;;;;;;;;29.00;55.50;;;;;;869746;22;754;-81
2022/08/30 01:16:05;;;;;;;;;;;29.00;54.80;;;;;;869497;22;805;-80
2022/08/30 01:16:26;;;;;;;;;;;29.00;55.60;;;;;;869654;22;876;-80
2022/08/30 01:16:47;;;;;;;;;;;29.00;54.60;;;;;;869693;22;773;-80
2022/08/30 01:17:08;;;;;;;;;;;29.00;55.60;;;;;;869576;22;880;-80
2022/08/30 01:17:28;;;;;;;;;;;29.00;54.60;;;;;;869827;22;836;-81
2022/08/30 01:17:49;;;;;;;;;;;29.00;55.60;;;;;;869510;22;912;-81
2022/08/30 01:18:10;;;;;;;;;;;29.00;54.60;;;;;;869593;22;904;-80
2022/08/30 01:18:31;;;;;;;;;;;29.00;54.70;;;;;;869594;22;865;-81
2022/08/30 01:18:55;;;;;;;;;;;29.00;55.70;;;;;;869866;22;756;-81
2022/08/30 01:19:24;;;;;;;;;;;29.00;55.80;;;;;;869695;22;856;-81
2022/08/30 01:20:03;;;;;;;;;;;29.00;55.80;;;;;;869618;22;907;-81
2022/08/30 01:20:26;;;;;;;;;;;29.00;55.90;;;;;;864599;22;969;-81
2022/08/30 01:21:01;;;;;;;;;;;29.00;55.00;;;;;;865191;22;814;-81
2022/08/30 01:21:33;;;;;;;;;;;29.00;55.00;;;;;;865283;22;790;-81
2022/08/30 01:21:56;;;;;;;;;;;29.00;55.00;;;;;;865278;22;865;-80
2022/08/30 01:22:29;;;;;;;;;;;29.00;55.00;;;;;;867730;22;919;-82
2022/08/30 01:22:49;;;;;;;;;;;29.00;56.40;;;;;;869647;22;884;-81
2022/08/30 01:23:14;;;;;;;;;;;29.00;56.20;;;;;;869698;22;883;-82
2022/08/30 01:23:36;;;;;;;;;;;29.00;55.00;;;;;;869738;22;769;-81
2022/08/30 01:23:58;;;;;;;;;;;29.00;55.00;;;;;;869800;22;896;-80
2022/08/30 01:24:18;;;;;;;;;;;28.90;54.90;;;;;;869578;22;873;-81
2022/08/30 01:24:39;;;;;;;;;;;29.00;55.00;;;;;;869452;22;912;-83
2022/08/30 01:25:01;;;;;;;;;;;28.90;54.90;;;;;;869907;22;939;-82
2022/08/30 01:25:24;;;;;;;;;;;28.90;54.90;;;;;;869814;22;801;-80
2022/08/30 01:25:46;;;;;;;;;;;29.00;55.10;;;;;;869644;22;842;-80
2022/08/30 01:26:06;;;;;;;;;;;29.00;55.00;;;;;;869526;22;935;-81
2022/08/30 01:26:28;;;;;;;;;;;28.90;54.90;;;;;;869383;22;761;-82
2022/08/30 01:26:49;;;;;;;;;;;28.90;55.00;;;;;;869617;22;864;-80
2022/08/30 01:27:10;;;;;;;;;;;29.00;56.00;;;;;;869657;22;875;-80
2022/08/30 01:27:31;;;;;;;;;;;29.00;55.00;;;;;;869594;22;916;-81
2022/08/30 01:27:55;;;;;;;;;;;29.00;56.00;;;;;;865137;22;1323;-80
2022/08/30 01:28:21;;;;;;;;;;;29.00;55.90;;;;;;865177;22;896;-82
2022/08/30 01:28:45;;;;;;;;;;;29.00;55.90;;;;;;865119;22;780;-81
2022/08/30 01:29:08;;;;;;;;;;;29.00;55.00;;;;;;865046;22;944;-80
2022/08/30 01:29:28;;;;;;;;;;;29.00;56.00;;;;;;865090;22;909;-80
2022/08/30 01:29:50;;;;;;;;;;;28.90;55.00;;;;;;863784;22;964;-80
2022/08/30 01:30:12;;;;;;;;;;;29.00;56.00;;;;;;865220;22;785;-79
2022/08/30 01:30:32;;;;;;;;;;;28.90;54.90;;;;;;860764;23;821;-79
2022/08/30 01:30:53;;;;;;;;;;;28.90;55.90;;;;;;860992;23;865;-80
2022/08/30 01:31:14;;;;;;;;;;;28.90;54.90;;;;;;860886;23;758;-79
2022/08/30 01:31:35;;;;;;;;;;;28.90;55.00;;;;;;861906;22;846;-81
2022/08/30 01:31:56;;;;;;;;;;;28.90;54.90;;;;;;865420;22;777;-80
2022/08/30 01:32:17;;;;;;;;;;;28.90;54.90;;;;;;865720;22;765;-80
2022/08/30 01:32:40;;;;;;;;;;;28.90;55.00;;;;;;869552;22;820;-79
2022/08/30 01:33:01;;;;;;;;;;;28.90;55.90;;;;;;869598;22;904;-80
2022/08/30 01:33:23;;;;;;;;;;;28.90;55.90;;;;;;869707;22;1924;-82
2022/08/30 01:33:43;;;;;;;;;;;28.90;55.00;;;;;;869366;22;1245;-80
2022/08/30 01:34:06;;;;;;;;;;;28.90;55.00;;;;;;869592;22;797;-80
2022/08/30 01:34:26;;;;;;;;;;;28.90;55.00;;;;;;869680;22;842;-78
2022/08/30 01:34:47;;;;;;;;;;;28.90;56.10;;;;;;869629;22;892;-79
2022/08/30 01:35:09;;;;;;;;;;;28.90;56.00;;;;;;869687;22;780;-81
2022/08/30 01:35:52;;;;;;;;;;;28.90;55.00;;;;;;869766;22;840;-80
2022/08/30 01:36:14;;;;;;;;;;;28.90;56.00;;;;;;868135;22;1261;-82
2022/08/30 01:36:36;;;;;;;;;;;28.90;55.30;;;;;;869580;22;869;-80
2022/08/30 01:36:57;;;;;;;;;;;28.90;55.10;;;;;;869795;22;892;-82
2022/08/30 01:37:20;;;;;;;;;;;28.90;55.10;;;;;;869615;22;805;-79
2022/08/30 01:37:42;;;;;;;;;;;28.90;56.00;;;;;;869520;22;1032;-80
2022/08/30 01:38:02;;;;;;;;;;;28.90;56.10;;;;;;869587;22;828;-82
2022/08/30 01:38:27;;;;;;;;;;;28.90;56.10;;;;;;869723;22;888;-78
2022/08/30 01:38:50;;;;;;;;;;;28.90;55.20;;;;;;869612;22;883;-79
2022/08/30 01:39:12;;;;;;;;;;;28.90;56.10;;;;;;869602;22;928;-80
2022/08/30 01:39:32;;;;;;;;;;;28.90;55.10;;;;;;869659;22;777;-80
2022/08/30 01:39:54;;;;;;;;;;;28.90;56.10;;;;;;869942;22;852;-79
2022/08/30 01:40:15;;;;;;;;;;;28.90;56.00;;;;;;869545;22;841;-80
2022/08/30 01:40:36;;;;;;;;;;;28.90;55.10;;;;;;869450;22;836;-80
2022/08/30 01:40:58;;;;;;;;;;;28.90;55.20;;;;;;869806;22;833;-81
2022/08/30 01:41:20;;;;;;;;;;;28.90;56.10;;;;;;869504;22;911;-80
2022/08/30 01:41:42;;;;;;;;;;;28.90;55.20;;;;;;869485;22;773;-81
2022/08/30 01:42:03;;;;;;;;;;;28.80;55.10;;;;;;869566;22;841;-81
2022/08/30 01:42:23;;;;;;;;;;;28.80;55.10;;;;;;869749;22;888;-80
2022/08/30 01:42:44;;;;;;;;;;;28.80;55.10;;;;;;869711;22;813;-82
2022/08/30 01:43:05;;;;;;;;;;;28.90;55.40;;;;;;869615;22;864;-83
2022/08/30 01:43:26;;;;;;;;;;;28.80;55.10;;;;;;869757;22;955;-81
2022/08/30 01:43:47;;;;;;;;;;;28.80;55.20;;;;;;869783;22;754;-80
2022/08/30 01:44:11;;;;;;;;;;;28.90;55.20;;;;;;869668;22;844;-80
2022/08/30 01:44:32;;;;;;;;;;;28.90;56.30;;;;;;869621;22;864;-83
2022/08/30 01:44:53;;;;;;;;;;;28.90;56.30;;;;;;869808;22;762;-83
2022/08/30 01:45:13;;;;;;;;;;;28.90;56.30;;;;;;869659;22;809;-82
2022/08/30 01:45:34;;;;;;;;;;;28.90;56.30;;;;;;869507;22;758;-81
2022/08/30 01:45:54;;;;;;;;;;;28.90;56.20;;;;;;869679;22;884;-81
2022/08/30 01:46:16;;;;;;;;;;;28.80;55.30;;;;;;869656;22;785;-81
2022/08/30 01:46:38;;;;;;;;;;;28.80;55.40;;;;;;869505;22;800;-82
2022/08/30 01:46:59;;;;;;;;;;;28.90;56.30;;;;;;869716;22;925;-80
2022/08/30 01:47:20;;;;;;;;;;;28.90;56.30;;;;;;869683;22;753;-82
2022/08/30 01:47:41;;;;;;;;;;;28.90;55.20;;;;;;869585;22;766;-82
2022/08/30 01:48:01;;;;;;;;;;;28.80;56.10;;;;;;869498;22;761;-80
2022/08/30 01:48:22;;;;;;;;;;;28.90;55.10;;;;;;869552;22;865;-81
2022/08/30 01:48:43;;;;;;;;;;;28.90;56.10;;;;;;869482;22;853;-82
2022/08/30 01:49:06;;;;;;;;;;;28.80;55.10;;;;;;869544;22;489;-80
2022/08/30 01:49:26;;;;;;;;;;;28.90;56.10;;;;;;869793;22;821;-82
2022/08/30 01:49:47;;;;;;;;;;;28.80;55.10;;;;;;869562;22;869;-82
2022/08/30 01:50:08;;;;;;;;;;;28.90;56.10;;;;;;869638;22;857;-82
2022/08/30 01:50:29;;;;;;;;;;;28.90;56.10;;;;;;869674;22;905;-82
2022/08/30 01:50:49;;;;;;;;;;;28.90;55.30;;;;;;865047;22;1253;-82
2022/08/30 01:51:11;;;;;;;;;;;28.80;56.20;;;;;;865149;22;810;-82
2022/08/30 01:51:31;;;;;;;;;;;28.90;56.30;;;;;;865192;22;801;-82
2022/08/30 01:51:52;;;;;;;;;;;28.90;55.30;;;;;;865181;22;866;-81
2022/08/30 01:52:13;;;;;;;;;;;28.90;55.30;;;;;;860320;23;896;-82
2022/08/30 01:52:34;;;;;;;;;;;28.90;55.20;;;;;;861666;22;813;-81
2022/08/30 01:52:54;;;;;;;;;;;28.90;55.20;;;;;;865594;22;754;-80
2022/08/30 01:53:15;;;;;;;;;;;28.90;55.40;;;;;;865318;22;1943;-82
2022/08/30 01:53:35;;;;;;;;;;;28.90;55.30;;;;;;865420;22;797;-81
2022/08/30 01:53:56;;;;;;;;;;;28.90;56.20;;;;;;866025;22;796;-81
2022/08/30 01:54:16;;;;;;;;;;;28.90;56.30;;;;;;869872;22;873;-79
2022/08/30 01:54:38;;;;;;;;;;;29.00;56.30;;;;;;864549;22;880;-81
2022/08/30 01:54:58;;;;;;;;;;;28.90;56.30;;;;;;865569;22;474;-80
2022/08/30 01:55:20;;;;;;;;;;;28.90;56.10;;;;;;865456;22;868;-80
2022/08/30 01:55:41;;;;;;;;;;;28.90;56.10;;;;;;865490;22;802;-81
2022/08/30 01:56:01;;;;;;;;;;;28.90;56.10;;;;;;865319;22;845;-81
2022/08/30 01:56:23;;;;;;;;;;;29.00;56.40;;;;;;866516;22;823;-82
2022/08/30 01:56:43;;;;;;;;;;;28.90;55.20;;;;;;869772;22;920;-81
2022/08/30 01:57:05;;;;;;;;;;;29.00;56.20;;;;;;869910;22;844;-81
2022/08/30 01:57:27;;;;;;;;;;;28.90;56.10;;;;;;870011;22;874;-81
2022/08/30 01:57:48;;;;;;;;;;;28.90;55.20;;;;;;864149;22;886;-79
2022/08/30 01:58:09;;;;;;;;;;;28.90;55.20;;;;;;865390;22;777;-83
2022/08/30 01:58:30;;;;;;;;;;;28.90;55.20;;;;;;865561;22;889;-81
2022/08/30 01:58:51;;;;;;;;;;;28.90;55.20;;;;;;865509;22;773;-79
2022/08/30 01:59:11;;;;;;;;;;;29.00;56.30;;;;;;865490;22;860;-79
2022/08/30 01:59:32;;;;;;;;;;;29.00;55.30;;;;;;866304;22;849;-81
2022/08/30 01:59:53;;;;;;;;;;;29.00;56.20;;;;;;869967;22;777;-80
2022/08/30 02:00:14;;;;;;;;;;;29.00;56.10;;;;;;869795;22;900;-80
2022/08/30 02:00:34;;;;;;;;;;;28.90;56.10;;;;;;869826;22;1238;-81
2022/08/30 02:00:56;;;;;;;;;;;29.00;55.30;;;;;;869883;22;784;-81
2022/08/30 02:01:18;;;;;;;;;;;29.00;55.20;;;;;;869976;22;912;-81
2022/08/30 02:01:39;;;;;;;;;;;29.00;56.20;;;;;;869743;22;912;-80
2022/08/30 02:02:00;;;;;;;;;;;29.00;56.10;;;;;;869966;22;876;-80
2022/08/30 02:02:23;;;;;;;;;;;29.00;56.20;;;;;;870026;22;773;-82
2022/08/30 02:02:43;;;;;;;;;;;29.00;55.20;;;;;;869871;22;793;-80
2022/08/30 02:03:04;;;;;;;;;;;29.00;56.10;;;;;;869822;22;782;-79
2022/08/30 02:03:29;;;;;;;;;;;29.00;56.20;;;;;;869940;22;872;-80
2022/08/30 02:03:49;;;;;;;;;;;29.00;56.20;;;;;;869910;22;871;-80
2022/08/30 02:04:11;;;;;;;;;;;29.00;56.10;;;;;;869919;22;560;-80
2022/08/30 02:04:32;;;;;;;;;;;29.00;56.10;;;;;;869852;22;781;-81
2022/08/30 02:04:53;;;;;;;;;;;29.00;55.20;;;;;;870129;22;872;-79
2022/08/30 02:05:14;;;;;;;;;;;29.00;56.10;;;;;;869928;22;841;-81
2022/08/30 02:05:35;;;;;;;;;;;29.00;55.10;;;;;;869970;22;772;-82
2022/08/30 02:05:56;;;;;;;;;;;29.00;56.10;;;;;;869977;22;797;-80
2022/08/30 02:06:18;;;;;;;;;;;29.00;56.00;;;;;;864333;22;920;-81
2022/08/30 02:06:38;;;;;;;;;;;29.00;56.00;;;;;;865344;22;785;-82
2022/08/30 02:07:00;;;;;;;;;;;29.00;55.00;;;;;;865424;22;820;-81
2022/08/30 02:07:21;;;;;;;;;;;29.00;56.00;;;;;;861213;23;1325;-82
2022/08/30 02:07:42;;;;;;;;;;;29.00;55.90;;;;;;861198;23;892;-81
2022/08/30 02:08:03;;;;;;;;;;;29.00;56.00;;;;;;862125;22;793;-81
2022/08/30 02:08:23;;;;;;;;;;;29.00;56.00;;;;;;865568;22;785;-81
2022/08/30 02:08:44;;;;;;;;;;;29.00;56.00;;;;;;865307;22;867;-81
2022/08/30 02:09:04;;;;;;;;;;;29.00;55.90;;;;;;866131;22;790;-81
2022/08/30 02:09:25;;;;;;;;;;;29.00;56.20;;;;;;869952;22;797;-81
2022/08/30 02:09:46;;;;;;;;;;;29.00;56.00;;;;;;869809;22;857;-81
2022/08/30 02:10:07;;;;;;;;;;;29.00;55.00;;;;;;869929;22;917;-80
2022/08/30 02:10:28;;;;;;;;;;;29.00;56.00;;;;;;869962;22;874;-82
2022/08/30 02:10:48;;;;;;;;;;;29.00;56.00;;;;;;869802;22;975;-79
2022/08/30 02:11:10;;;;;;;;;;;29.00;55.90;;;;;;869951;22;781;-79
2022/08/30 02:11:30;;;;;;;;;;;29.00;56.00;;;;;;869846;22;975;-79